sensor_id;sensor_type;location;lat;lon;timestamp;P1;durP1;ratioP1;P2;durP2;ratioP2
81672;SDS011;71092;41.158;-8.680;2023-11-21T00:00:37;8.50;;;4.65;;
81672;SDS011;71092;41.158;-8.680;2023-11-21T00:03:03;8.93;;;4.78;;
81672;SDS011;71092;41.158;-8.680;2023-11-21T00:05:29;9.95;;;4.93;;
81672;SDS011;71092;41.158;-8.680;2023-11-21T00:07:56;11.20;;;5.38;;
81672;SDS011;71092;41.158;-8.680;2023-11-21T00:10:21;7.43;;;4.32;;
81672;SDS011;71092;41.158;-8.680;2023-11-21T00:12:47;10.88;;;5.03;;
81672;SDS011;71092;41.158;-8.680;2023-11-21T00:15:13;10.77;;;5.18;;
81672;SDS011;71092;41.158;-8.680;2023-11-21T00:17:40;9.93;;;4.90;;
81672;SDS011;71092;41.158;-8.680;2023-11-21T00:20:06;11.55;;;5.35;;
81672;SDS011;71092;41.158;-8.680;2023-11-21T00:22:33;9.40;;;5.22;;
81672;SDS011;71092;41.158;-8.680;2023-11-21T00:25:00;9.30;;;4.45;;
81672;SDS011;71092;41.158;-8.680;2023-11-21T00:27:26;9.40;;;4.80;;
81672;SDS011;71092;41.158;-8.680;2023-11-21T00:29:52;7.95;;;4.57;;
81672;SDS011;71092;41.158;-8.680;2023-11-21T00:32:19;7.82;;;4.22;;
81672;SDS011;71092;41.158;-8.680;2023-11-21T00:34:45;9.77;;;5.38;;
81672;SDS011;71092;41.158;-8.680;2023-11-21T00:37:11;12.65;;;4.55;;
81672;SDS011;71092;41.158;-8.680;2023-11-21T00:39:37;9.73;;;4.55;;
81672;SDS011;71092;41.158;-8.680;2023-11-21T00:42:03;7.97;;;3.97;;
81672;SDS011;71092;41.158;-8.680;2023-11-21T00:44:30;10.05;;;5.25;;
81672;SDS011;71092;41.158;-8.680;2023-11-21T00:46:56;9.48;;;4.45;;
81672;SDS011;71092;41.158;-8.680;2023-11-21T00:49:22;9.00;;;4.57;;
81672;SDS011;71092;41.158;-8.680;2023-11-21T00:51:48;8.30;;;4.38;;
81672;SDS011;71092;41.158;-8.680;2023-11-21T00:54:14;8.57;;;4.32;;
81672;SDS011;71092;41.158;-8.680;2023-11-21T00:56:42;8.23;;;4.38;;
81672;SDS011;71092;41.158;-8.680;2023-11-21T00:59:09;8.13;;;4.38;;
81672;SDS011;71092;41.158;-8.680;2023-11-21T01:01:36;8.45;;;3.97;;
81672;SDS011;71092;41.158;-8.680;2023-11-21T01:04:05;7.82;;;4.15;;
81672;SDS011;71092;41.158;-8.680;2023-11-21T01:06:33;10.38;;;5.05;;
81672;SDS011;71092;41.158;-8.680;2023-11-21T01:08:59;10.52;;;4.70;;
81672;SDS011;71092;41.158;-8.680;2023-11-21T01:11:25;7.40;;;4.05;;
81672;SDS011;71092;41.158;-8.680;2023-11-21T01:13:51;7.47;;;3.85;;
81672;SDS011;71092;41.158;-8.680;2023-11-21T01:16:18;9.00;;;4.35;;
81672;SDS011;71092;41.158;-8.680;2023-11-21T01:18:44;7.47;;;4.07;;
81672;SDS011;71092;41.158;-8.680;2023-11-21T01:21:11;9.75;;;4.63;;
81672;SDS011;71092;41.158;-8.680;2023-11-21T01:23:37;8.30;;;3.78;;
81672;SDS011;71092;41.158;-8.680;2023-11-21T01:26:03;8.68;;;4.10;;
81672;SDS011;71092;41.158;-8.680;2023-11-21T01:28:29;9.73;;;5.55;;
81672;SDS011;71092;41.158;-8.680;2023-11-21T01:30:56;9.57;;;4.15;;
81672;SDS011;71092;41.158;-8.680;2023-11-21T01:33:23;8.35;;;4.28;;
81672;SDS011;71092;41.158;-8.680;2023-11-21T01:35:51;8.93;;;3.95;;
81672;SDS011;71092;41.158;-8.680;2023-11-21T01:38:20;7.45;;;4.30;;
81672;SDS011;71092;41.158;-8.680;2023-11-21T01:40:47;8.73;;;4.40;;
81672;SDS011;71092;41.158;-8.680;2023-11-21T01:43:13;8.10;;;3.97;;
81672;SDS011;71092;41.158;-8.680;2023-11-21T01:45:39;8.32;;;4.15;;
81672;SDS011;71092;41.158;-8.680;2023-11-21T01:48:05;10.20;;;4.10;;
81672;SDS011;71092;41.158;-8.680;2023-11-21T01:50:32;7.50;;;4.30;;
81672;SDS011;71092;41.158;-8.680;2023-11-21T01:52:59;9.80;;;4.20;;
81672;SDS011;71092;41.158;-8.680;2023-11-21T01:55:25;8.77;;;3.90;;
81672;SDS011;71092;41.158;-8.680;2023-11-21T01:57:53;7.65;;;3.88;;
81672;SDS011;71092;41.158;-8.680;2023-11-21T02:00:19;9.68;;;4.15;;
81672;SDS011;71092;41.158;-8.680;2023-11-21T02:02:46;8.50;;;4.65;;
81672;SDS011;71092;41.158;-8.680;2023-11-21T02:05:13;8.73;;;3.88;;
81672;SDS011;71092;41.158;-8.680;2023-11-21T02:07:40;6.53;;;3.95;;
81672;SDS011;71092;41.158;-8.680;2023-11-21T02:10:08;7.18;;;4.20;;
81672;SDS011;71092;41.158;-8.680;2023-11-21T02:12:36;10.60;;;4.20;;
81672;SDS011;71092;41.158;-8.680;2023-11-21T02:15:05;8.02;;;4.38;;
81672;SDS011;71092;41.158;-8.680;2023-11-21T02:17:35;7.85;;;3.83;;
81672;SDS011;71092;41.158;-8.680;2023-11-21T02:20:01;7.10;;;3.65;;
81672;SDS011;71092;41.158;-8.680;2023-11-21T02:22:30;7.88;;;3.80;;
81672;SDS011;71092;41.158;-8.680;2023-11-21T02:24:56;7.70;;;3.90;;
81672;SDS011;71092;41.158;-8.680;2023-11-21T02:27:23;9.48;;;3.72;;
81672;SDS011;71092;41.158;-8.680;2023-11-21T02:29:49;9.48;;;4.53;;
81672;SDS011;71092;41.158;-8.680;2023-11-21T02:32:15;7.65;;;3.58;;
81672;SDS011;71092;41.158;-8.680;2023-11-21T02:34:44;9.13;;;3.60;;
81672;SDS011;71092;41.158;-8.680;2023-11-21T02:37:11;9.90;;;4.05;;
81672;SDS011;71092;41.158;-8.680;2023-11-21T02:39:38;7.93;;;3.58;;
81672;SDS011;71092;41.158;-8.680;2023-11-21T02:42:04;9.05;;;3.85;;
81672;SDS011;71092;41.158;-8.680;2023-11-21T02:44:29;9.32;;;3.90;;
81672;SDS011;71092;41.158;-8.680;2023-11-21T02:46:55;8.10;;;3.58;;
81672;SDS011;71092;41.158;-8.680;2023-11-21T02:49:23;7.15;;;3.80;;
81672;SDS011;71092;41.158;-8.680;2023-11-21T02:51:48;9.57;;;4.30;;
81672;SDS011;71092;41.158;-8.680;2023-11-21T02:54:14;7.80;;;3.88;;
81672;SDS011;71092;41.158;-8.680;2023-11-21T02:56:42;9.68;;;3.50;;
81672;SDS011;71092;41.158;-8.680;2023-11-21T02:59:08;9.13;;;4.10;;
81672;SDS011;71092;41.158;-8.680;2023-11-21T03:01:34;6.50;;;3.15;;
81672;SDS011;71092;41.158;-8.680;2023-11-21T03:04:00;6.35;;;3.63;;
81672;SDS011;71092;41.158;-8.680;2023-11-21T03:06:27;8.70;;;3.90;;
81672;SDS011;71092;41.158;-8.680;2023-11-21T03:08:53;8.25;;;3.58;;
81672;SDS011;71092;41.158;-8.680;2023-11-21T03:11:18;5.60;;;2.88;;
81672;SDS011;71092;41.158;-8.680;2023-11-21T03:13:44;9.23;;;3.88;;
81672;SDS011;71092;41.158;-8.680;2023-11-21T03:16:11;7.25;;;3.60;;
81672;SDS011;71092;41.158;-8.680;2023-11-21T03:18:38;9.18;;;3.80;;
81672;SDS011;71092;41.158;-8.680;2023-11-21T03:21:04;8.43;;;3.72;;
81672;SDS011;71092;41.158;-8.680;2023-11-21T03:23:31;7.13;;;3.88;;
81672;SDS011;71092;41.158;-8.680;2023-11-21T03:25:57;6.13;;;3.58;;
81672;SDS011;71092;41.158;-8.680;2023-11-21T03:28:25;6.55;;;3.30;;
81672;SDS011;71092;41.158;-8.680;2023-11-21T03:30:52;8.38;;;3.88;;
81672;SDS011;71092;41.158;-8.680;2023-11-21T03:33:18;8.00;;;3.33;;
81672;SDS011;71092;41.158;-8.680;2023-11-21T03:35:43;7.97;;;3.60;;
81672;SDS011;71092;41.158;-8.680;2023-11-21T03:38:10;8.07;;;3.28;;
81672;SDS011;71092;41.158;-8.680;2023-11-21T03:40:36;5.43;;;2.88;;
81672;SDS011;71092;41.158;-8.680;2023-11-21T03:43:02;6.05;;;3.13;;
81672;SDS011;71092;41.158;-8.680;2023-11-21T03:45:28;6.28;;;3.08;;
81672;SDS011;71092;41.158;-8.680;2023-11-21T03:47:54;8.70;;;3.45;;
81672;SDS011;71092;41.158;-8.680;2023-11-21T03:50:20;7.13;;;3.15;;
81672;SDS011;71092;41.158;-8.680;2023-11-21T03:52:45;9.10;;;3.70;;
81672;SDS011;71092;41.158;-8.680;2023-11-21T03:55:11;7.68;;;3.47;;
81672;SDS011;71092;41.158;-8.680;2023-11-21T03:57:41;7.40;;;3.20;;
81672;SDS011;71092;41.158;-8.680;2023-11-21T04:00:07;7.55;;;3.33;;
81672;SDS011;71092;41.158;-8.680;2023-11-21T04:02:39;7.95;;;3.25;;
81672;SDS011;71092;41.158;-8.680;2023-11-21T04:05:06;6.07;;;2.97;;
81672;SDS011;71092;41.158;-8.680;2023-11-21T04:07:32;5.72;;;3.17;;
81672;SDS011;71092;41.158;-8.680;2023-11-21T04:09:59;6.82;;;3.15;;
81672;SDS011;71092;41.158;-8.680;2023-11-21T04:12:25;5.93;;;3.10;;
81672;SDS011;71092;41.158;-8.680;2023-11-21T04:14:50;5.65;;;2.95;;
81672;SDS011;71092;41.158;-8.680;2023-11-21T04:17:19;7.47;;;2.97;;
81672;SDS011;71092;41.158;-8.680;2023-11-21T04:19:45;7.90;;;3.10;;
81672;SDS011;71092;41.158;-8.680;2023-11-21T04:22:12;6.10;;;2.80;;
81672;SDS011;71092;41.158;-8.680;2023-11-21T04:24:38;8.63;;;3.70;;
81672;SDS011;71092;41.158;-8.680;2023-11-21T04:27:03;7.07;;;2.95;;
81672;SDS011;71092;41.158;-8.680;2023-11-21T04:29:29;8.57;;;3.67;;
81672;SDS011;71092;41.158;-8.680;2023-11-21T04:31:55;7.68;;;3.67;;
81672;SDS011;71092;41.158;-8.680;2023-11-21T04:34:21;6.45;;;2.97;;
81672;SDS011;71092;41.158;-8.680;2023-11-21T04:36:47;5.90;;;2.72;;
81672;SDS011;71092;41.158;-8.680;2023-11-21T04:39:13;5.32;;;2.75;;
81672;SDS011;71092;41.158;-8.680;2023-11-21T04:41:39;6.05;;;2.88;;
81672;SDS011;71092;41.158;-8.680;2023-11-21T04:44:05;8.68;;;3.47;;
81672;SDS011;71092;41.158;-8.680;2023-11-21T04:46:32;7.47;;;3.25;;
81672;SDS011;71092;41.158;-8.680;2023-11-21T04:48:58;6.68;;;2.67;;
81672;SDS011;71092;41.158;-8.680;2023-11-21T04:51:24;7.53;;;3.00;;
81672;SDS011;71092;41.158;-8.680;2023-11-21T04:53:50;8.20;;;3.28;;
81672;SDS011;71092;41.158;-8.680;2023-11-21T04:56:16;7.53;;;2.85;;
81672;SDS011;71092;41.158;-8.680;2023-11-21T04:58:41;7.07;;;3.22;;
81672;SDS011;71092;41.158;-8.680;2023-11-21T05:01:07;7.20;;;3.17;;
81672;SDS011;71092;41.158;-8.680;2023-11-21T05:03:33;6.95;;;3.22;;
81672;SDS011;71092;41.158;-8.680;2023-11-21T05:06:00;6.53;;;2.75;;
81672;SDS011;71092;41.158;-8.680;2023-11-21T05:08:25;6.30;;;2.85;;
81672;SDS011;71092;41.158;-8.680;2023-11-21T05:10:52;5.65;;;2.55;;
81672;SDS011;71092;41.158;-8.680;2023-11-21T05:13:19;6.70;;;2.60;;
81672;SDS011;71092;41.158;-8.680;2023-11-21T05:15:45;9.15;;;2.97;;
81672;SDS011;71092;41.158;-8.680;2023-11-21T05:18:11;6.57;;;2.63;;
81672;SDS011;71092;41.158;-8.680;2023-11-21T05:20:39;7.68;;;2.92;;
81672;SDS011;71092;41.158;-8.680;2023-11-21T05:23:06;4.80;;;2.30;;
81672;SDS011;71092;41.158;-8.680;2023-11-21T05:25:33;6.28;;;2.85;;
81672;SDS011;71092;41.158;-8.680;2023-11-21T05:27:59;6.85;;;2.58;;
81672;SDS011;71092;41.158;-8.680;2023-11-21T05:30:26;5.75;;;2.83;;
81672;SDS011;71092;41.158;-8.680;2023-11-21T05:32:53;7.90;;;2.83;;
81672;SDS011;71092;41.158;-8.680;2023-11-21T05:35:19;7.57;;;2.97;;
81672;SDS011;71092;41.158;-8.680;2023-11-21T05:37:45;6.07;;;2.72;;
81672;SDS011;71092;41.158;-8.680;2023-11-21T05:40:11;6.15;;;2.67;;
81672;SDS011;71092;41.158;-8.680;2023-11-21T05:42:38;6.15;;;2.90;;
81672;SDS011;71092;41.158;-8.680;2023-11-21T05:45:04;6.18;;;2.88;;
81672;SDS011;71092;41.158;-8.680;2023-11-21T05:50:06;6.03;;;2.15;;
81672;SDS011;71092;41.158;-8.680;2023-11-21T05:52:39;6.47;;;2.42;;
81672;SDS011;71092;41.158;-8.680;2023-11-21T05:55:05;4.85;;;2.58;;
81672;SDS011;71092;41.158;-8.680;2023-11-21T05:57:35;8.57;;;2.70;;
81672;SDS011;71092;41.158;-8.680;2023-11-21T06:00:04;5.63;;;2.45;;
81672;SDS011;71092;41.158;-8.680;2023-11-21T06:02:38;5.85;;;2.85;;
81672;SDS011;71092;41.158;-8.680;2023-11-21T06:05:05;8.98;;;2.83;;
81672;SDS011;71092;41.158;-8.680;2023-11-21T06:07:32;6.75;;;2.80;;
81672;SDS011;71092;41.158;-8.680;2023-11-21T06:09:58;5.70;;;2.80;;
81672;SDS011;71092;41.158;-8.680;2023-11-21T06:12:24;5.80;;;2.75;;
81672;SDS011;71092;41.158;-8.680;2023-11-21T06:14:50;4.28;;;2.00;;
81672;SDS011;71092;41.158;-8.680;2023-11-21T06:17:16;7.15;;;2.70;;
81672;SDS011;71092;41.158;-8.680;2023-11-21T06:19:43;6.55;;;2.67;;
81672;SDS011;71092;41.158;-8.680;2023-11-21T06:22:11;6.90;;;2.53;;
81672;SDS011;71092;41.158;-8.680;2023-11-21T06:24:37;8.65;;;2.95;;
81672;SDS011;71092;41.158;-8.680;2023-11-21T06:27:03;6.78;;;2.25;;
81672;SDS011;71092;41.158;-8.680;2023-11-21T06:29:30;5.60;;;2.67;;
81672;SDS011;71092;41.158;-8.680;2023-11-21T06:31:57;5.68;;;2.60;;
81672;SDS011;71092;41.158;-8.680;2023-11-21T06:34:24;6.88;;;2.55;;
81672;SDS011;71092;41.158;-8.680;2023-11-21T06:36:49;5.60;;;2.17;;
81672;SDS011;71092;41.158;-8.680;2023-11-21T06:39:15;8.32;;;2.80;;
81672;SDS011;71092;41.158;-8.680;2023-11-21T06:41:43;6.65;;;3.03;;
81672;SDS011;71092;41.158;-8.680;2023-11-21T06:44:09;5.65;;;2.67;;
81672;SDS011;71092;41.158;-8.680;2023-11-21T06:46:34;7.57;;;2.70;;
81672;SDS011;71092;41.158;-8.680;2023-11-21T06:49:00;7.28;;;2.83;;
81672;SDS011;71092;41.158;-8.680;2023-11-21T06:51:26;7.00;;;2.30;;
81672;SDS011;71092;41.158;-8.680;2023-11-21T06:53:52;4.05;;;1.90;;
81672;SDS011;71092;41.158;-8.680;2023-11-21T06:56:18;5.38;;;2.30;;
81672;SDS011;71092;41.158;-8.680;2023-11-21T06:58:44;6.78;;;2.63;;
81672;SDS011;71092;41.158;-8.680;2023-11-21T07:01:11;6.82;;;2.92;;
81672;SDS011;71092;41.158;-8.680;2023-11-21T07:03:37;6.07;;;2.30;;
81672;SDS011;71092;41.158;-8.680;2023-11-21T07:06:03;5.15;;;2.33;;
81672;SDS011;71092;41.158;-8.680;2023-11-21T07:08:30;5.70;;;2.30;;
81672;SDS011;71092;41.158;-8.680;2023-11-21T07:10:55;5.25;;;2.30;;
81672;SDS011;71092;41.158;-8.680;2023-11-21T07:13:21;4.88;;;2.15;;
81672;SDS011;71092;41.158;-8.680;2023-11-21T07:15:47;5.38;;;2.15;;
81672;SDS011;71092;41.158;-8.680;2023-11-21T07:18:13;4.07;;;1.70;;
81672;SDS011;71092;41.158;-8.680;2023-11-21T07:20:39;5.20;;;1.70;;
81672;SDS011;71092;41.158;-8.680;2023-11-21T07:23:05;4.93;;;2.05;;
81672;SDS011;71092;41.158;-8.680;2023-11-21T07:25:31;4.63;;;1.95;;
81672;SDS011;71092;41.158;-8.680;2023-11-21T07:27:59;4.10;;;1.90;;
81672;SDS011;71092;41.158;-8.680;2023-11-21T07:30:26;5.68;;;1.90;;
81672;SDS011;71092;41.158;-8.680;2023-11-21T07:32:52;3.40;;;1.48;;
81672;SDS011;71092;41.158;-8.680;2023-11-21T07:35:18;7.47;;;1.67;;
81672;SDS011;71092;41.158;-8.680;2023-11-21T07:37:44;3.90;;;1.75;;
81672;SDS011;71092;41.158;-8.680;2023-11-21T07:40:10;5.80;;;2.22;;
81672;SDS011;71092;41.158;-8.680;2023-11-21T07:42:37;8.82;;;1.75;;
81672;SDS011;71092;41.158;-8.680;2023-11-21T07:45:04;3.72;;;1.52;;
81672;SDS011;71092;41.158;-8.680;2023-11-21T07:47:32;4.10;;;1.40;;
81672;SDS011;71092;41.158;-8.680;2023-11-21T07:50:00;3.05;;;1.60;;
81672;SDS011;71092;41.158;-8.680;2023-11-21T07:52:28;4.07;;;1.60;;
81672;SDS011;71092;41.158;-8.680;2023-11-21T07:54:54;2.97;;;1.52;;
81672;SDS011;71092;41.158;-8.680;2023-11-21T07:57:20;3.42;;;1.27;;
81672;SDS011;71092;41.158;-8.680;2023-11-21T07:59:46;3.05;;;1.40;;
81672;SDS011;71092;41.158;-8.680;2023-11-21T08:02:11;2.33;;;1.35;;
81672;SDS011;71092;41.158;-8.680;2023-11-21T08:04:38;2.13;;;1.08;;
81672;SDS011;71092;41.158;-8.680;2023-11-21T08:07:03;4.93;;;1.40;;
81672;SDS011;71092;41.158;-8.680;2023-11-21T08:09:29;3.28;;;1.38;;
81672;SDS011;71092;41.158;-8.680;2023-11-21T08:11:55;2.60;;;1.30;;
81672;SDS011;71092;41.158;-8.680;2023-11-21T08:14:22;4.32;;;1.33;;
81672;SDS011;71092;41.158;-8.680;2023-11-21T08:16:50;3.95;;;1.67;;
81672;SDS011;71092;41.158;-8.680;2023-11-21T08:19:16;2.33;;;1.17;;
81672;SDS011;71092;41.158;-8.680;2023-11-21T08:21:43;3.83;;;1.40;;
81672;SDS011;71092;41.158;-8.680;2023-11-21T08:24:11;3.58;;;1.30;;
81672;SDS011;71092;41.158;-8.680;2023-11-21T08:26:37;4.28;;;1.48;;
81672;SDS011;71092;41.158;-8.680;2023-11-21T08:29:03;3.97;;;1.38;;
81672;SDS011;71092;41.158;-8.680;2023-11-21T08:31:29;3.60;;;1.67;;
81672;SDS011;71092;41.158;-8.680;2023-11-21T08:33:55;2.35;;;1.13;;
81672;SDS011;71092;41.158;-8.680;2023-11-21T08:36:23;3.53;;;1.40;;
81672;SDS011;71092;41.158;-8.680;2023-11-21T08:38:49;1.70;;;0.90;;
81672;SDS011;71092;41.158;-8.680;2023-11-21T08:41:17;5.28;;;1.25;;
81672;SDS011;71092;41.158;-8.680;2023-11-21T08:43:44;3.78;;;1.25;;
81672;SDS011;71092;41.158;-8.680;2023-11-21T08:46:10;3.72;;;1.30;;
81672;SDS011;71092;41.158;-8.680;2023-11-21T08:48:36;2.42;;;1.10;;
81672;SDS011;71092;41.158;-8.680;2023-11-21T08:51:02;3.35;;;1.38;;
81672;SDS011;71092;41.158;-8.680;2023-11-21T08:53:29;2.67;;;1.00;;
81672;SDS011;71092;41.158;-8.680;2023-11-21T08:55:56;4.00;;;1.08;;
81672;SDS011;71092;41.158;-8.680;2023-11-21T08:58:22;4.68;;;1.48;;
81672;SDS011;71092;41.158;-8.680;2023-11-21T09:00:48;2.50;;;1.17;;
81672;SDS011;71092;41.158;-8.680;2023-11-21T09:03:14;3.63;;;1.00;;
81672;SDS011;71092;41.158;-8.680;2023-11-21T09:05:39;5.85;;;1.40;;
81672;SDS011;71092;41.158;-8.680;2023-11-21T09:08:05;2.10;;;0.85;;
81672;SDS011;71092;41.158;-8.680;2023-11-21T09:10:35;3.50;;;1.08;;
81672;SDS011;71092;41.158;-8.680;2023-11-21T09:13:02;2.58;;;1.08;;
81672;SDS011;71092;41.158;-8.680;2023-11-21T09:15:28;3.40;;;1.00;;
81672;SDS011;71092;41.158;-8.680;2023-11-21T09:17:54;2.85;;;1.20;;
81672;SDS011;71092;41.158;-8.680;2023-11-21T09:20:20;3.83;;;1.20;;
81672;SDS011;71092;41.158;-8.680;2023-11-21T09:22:48;3.72;;;0.95;;
81672;SDS011;71092;41.158;-8.680;2023-11-21T09:25:14;3.58;;;1.48;;
81672;SDS011;71092;41.158;-8.680;2023-11-21T09:27:40;2.47;;;1.05;;
81672;SDS011;71092;41.158;-8.680;2023-11-21T09:30:06;2.08;;;0.95;;
81672;SDS011;71092;41.158;-8.680;2023-11-21T09:32:37;1.95;;;0.82;;
81672;SDS011;71092;41.158;-8.680;2023-11-21T09:35:04;1.73;;;0.65;;
81672;SDS011;71092;41.158;-8.680;2023-11-21T09:37:31;3.58;;;1.27;;
81672;SDS011;71092;41.158;-8.680;2023-11-21T09:39:57;3.85;;;1.50;;
81672;SDS011;71092;41.158;-8.680;2023-11-21T09:42:23;4.13;;;1.05;;
81672;SDS011;71092;41.158;-8.680;2023-11-21T09:45:06;2.55;;;0.95;;
81672;SDS011;71092;41.158;-8.680;2023-11-21T09:47:38;4.18;;;1.40;;
81672;SDS011;71092;41.158;-8.680;2023-11-21T09:50:04;3.55;;;1.08;;
81672;SDS011;71092;41.158;-8.680;2023-11-21T09:52:36;2.38;;;0.95;;
81672;SDS011;71092;41.158;-8.680;2023-11-21T09:55:07;3.50;;;1.30;;
81672;SDS011;71092;41.158;-8.680;2023-11-21T09:57:33;2.80;;;1.27;;
81672;SDS011;71092;41.158;-8.680;2023-11-21T10:00:01;1.70;;;0.85;;
81672;SDS011;71092;41.158;-8.680;2023-11-21T10:02:30;2.05;;;0.98;;
81672;SDS011;71092;41.158;-8.680;2023-11-21T10:05:02;2.30;;;1.00;;
81672;SDS011;71092;41.158;-8.680;2023-11-21T10:07:28;2.10;;;0.90;;
81672;SDS011;71092;41.158;-8.680;2023-11-21T10:09:54;2.90;;;0.93;;
81672;SDS011;71092;41.158;-8.680;2023-11-21T10:12:20;6.68;;;1.45;;
81672;SDS011;71092;41.158;-8.680;2023-11-21T10:14:48;2.55;;;1.10;;
81672;SDS011;71092;41.158;-8.680;2023-11-21T10:17:15;3.75;;;1.23;;
81672;SDS011;71092;41.158;-8.680;2023-11-21T10:19:47;3.17;;;1.20;;
81672;SDS011;71092;41.158;-8.680;2023-11-21T10:22:16;6.45;;;1.20;;
81672;SDS011;71092;41.158;-8.680;2023-11-21T10:24:42;3.22;;;1.17;;
81672;SDS011;71092;41.158;-8.680;2023-11-21T10:27:09;3.20;;;1.35;;
81672;SDS011;71092;41.158;-8.680;2023-11-21T10:29:34;2.90;;;1.23;;
81672;SDS011;71092;41.158;-8.680;2023-11-21T10:32:04;3.00;;;1.17;;
81672;SDS011;71092;41.158;-8.680;2023-11-21T10:34:31;2.85;;;1.33;;
81672;SDS011;71092;41.158;-8.680;2023-11-21T10:36:57;4.03;;;1.27;;
81672;SDS011;71092;41.158;-8.680;2023-11-21T10:39:23;2.78;;;1.23;;
81672;SDS011;71092;41.158;-8.680;2023-11-21T10:41:53;4.05;;;1.38;;
81672;SDS011;71092;41.158;-8.680;2023-11-21T10:44:21;2.47;;;1.00;;
81672;SDS011;71092;41.158;-8.680;2023-11-21T10:46:53;3.50;;;0.90;;
81672;SDS011;71092;41.158;-8.680;2023-11-21T10:49:24;3.70;;;1.00;;
81672;SDS011;71092;41.158;-8.680;2023-11-21T10:51:51;3.00;;;1.33;;
81672;SDS011;71092;41.158;-8.680;2023-11-21T10:54:21;3.28;;;1.20;;
81672;SDS011;71092;41.158;-8.680;2023-11-21T10:56:49;3.55;;;1.02;;
81672;SDS011;71092;41.158;-8.680;2023-11-21T10:59:16;6.03;;;1.55;;
81672;SDS011;71092;41.158;-8.680;2023-11-21T11:01:45;2.75;;;1.25;;
81672;SDS011;71092;41.158;-8.680;2023-11-21T11:04:12;2.38;;;1.08;;
81672;SDS011;71092;41.158;-8.680;2023-11-21T11:06:43;4.50;;;1.08;;
81672;SDS011;71092;41.158;-8.680;2023-11-21T11:09:12;9.13;;;1.42;;
81672;SDS011;71092;41.158;-8.680;2023-11-21T11:11:42;4.20;;;1.15;;
81672;SDS011;71092;41.158;-8.680;2023-11-21T11:14:10;4.00;;;1.08;;
81672;SDS011;71092;41.158;-8.680;2023-11-21T11:16:38;3.70;;;1.17;;
81672;SDS011;71092;41.158;-8.680;2023-11-21T11:19:09;3.63;;;0.90;;
81672;SDS011;71092;41.158;-8.680;2023-11-21T11:30:07;3.15;;;1.00;;
81672;SDS011;71092;41.158;-8.680;2023-11-21T11:37:59;4.03;;;1.17;;
81672;SDS011;71092;41.158;-8.680;2023-11-21T11:40:40;3.95;;;1.10;;
81672;SDS011;71092;41.158;-8.680;2023-11-21T11:43:07;4.30;;;1.50;;
81672;SDS011;71092;41.158;-8.680;2023-11-21T11:45:33;4.60;;;1.23;;
81672;SDS011;71092;41.158;-8.680;2023-11-21T11:48:01;10.68;;;2.15;;
81672;SDS011;71092;41.158;-8.680;2023-11-21T11:50:27;4.93;;;1.38;;
81672;SDS011;71092;41.158;-8.680;2023-11-21T11:52:53;3.78;;;1.10;;
81672;SDS011;71092;41.158;-8.680;2023-11-21T11:55:20;3.42;;;1.00;;
81672;SDS011;71092;41.158;-8.680;2023-11-21T11:57:49;4.60;;;1.38;;
81672;SDS011;71092;41.158;-8.680;2023-11-21T12:00:20;4.15;;;1.30;;
81672;SDS011;71092;41.158;-8.680;2023-11-21T12:02:53;1.92;;;0.90;;
81672;SDS011;71092;41.158;-8.680;2023-11-21T12:05:25;3.38;;;1.48;;
81672;SDS011;71092;41.158;-8.680;2023-11-21T12:07:53;4.40;;;1.40;;
81672;SDS011;71092;41.158;-8.680;2023-11-21T12:10:24;3.03;;;1.02;;
81672;SDS011;71092;41.158;-8.680;2023-11-21T12:12:51;2.08;;;0.90;;
81672;SDS011;71092;41.158;-8.680;2023-11-21T12:15:20;5.88;;;1.50;;
81672;SDS011;71092;41.158;-8.680;2023-11-21T12:17:47;4.53;;;1.67;;
81672;SDS011;71092;41.158;-8.680;2023-11-21T12:20:15;9.13;;;1.80;;
81672;SDS011;71092;41.158;-8.680;2023-11-21T12:25:16;10.95;;;1.48;;
81672;SDS011;71092;41.158;-8.680;2023-11-21T12:27:48;10.10;;;1.77;;
81672;SDS011;71092;41.158;-8.680;2023-11-21T12:30:16;5.38;;;1.50;;
81672;SDS011;71092;41.158;-8.680;2023-11-21T12:32:43;6.28;;;1.60;;
81672;SDS011;71092;41.158;-8.680;2023-11-21T12:35:11;4.93;;;1.50;;
81672;SDS011;71092;41.158;-8.680;2023-11-21T12:37:37;9.48;;;1.35;;
81672;SDS011;71092;41.158;-8.680;2023-11-21T12:40:05;6.10;;;1.60;;
81672;SDS011;71092;41.158;-8.680;2023-11-21T12:42:33;9.32;;;1.70;;
81672;SDS011;71092;41.158;-8.680;2023-11-21T12:45:09;7.55;;;1.90;;
81672;SDS011;71092;41.158;-8.680;2023-11-21T12:47:43;6.00;;;1.58;;
81672;SDS011;71092;41.158;-8.680;2023-11-21T12:50:10;5.63;;;2.03;;
81672;SDS011;71092;41.158;-8.680;2023-11-21T12:52:45;4.20;;;1.50;;
81672;SDS011;71092;41.158;-8.680;2023-11-21T12:55:20;8.30;;;1.80;;
81672;SDS011;71092;41.158;-8.680;2023-11-21T12:57:50;6.35;;;1.90;;
81672;SDS011;71092;41.158;-8.680;2023-11-21T13:00:20;5.03;;;1.80;;
81672;SDS011;71092;41.158;-8.680;2023-11-21T13:02:55;5.15;;;1.60;;
81672;SDS011;71092;41.158;-8.680;2023-11-21T13:05:29;5.78;;;1.60;;
81672;SDS011;71092;41.158;-8.680;2023-11-21T13:08:05;6.82;;;1.88;;
81672;SDS011;71092;41.158;-8.680;2023-11-21T13:10:41;5.97;;;1.58;;
81672;SDS011;71092;41.158;-8.680;2023-11-21T13:13:10;5.18;;;1.70;;
81672;SDS011;71092;41.158;-8.680;2023-11-21T13:18:15;5.57;;;1.73;;
81672;SDS011;71092;41.158;-8.680;2023-11-21T13:20:42;6.30;;;2.08;;
81672;SDS011;71092;41.158;-8.680;2023-11-21T13:23:08;4.47;;;1.50;;
81672;SDS011;71092;41.158;-8.680;2023-11-21T13:25:37;5.47;;;1.58;;
81672;SDS011;71092;41.158;-8.680;2023-11-21T13:28:06;6.93;;;1.88;;
81672;SDS011;71092;41.158;-8.680;2023-11-21T13:30:32;5.88;;;2.53;;
81672;SDS011;71092;41.158;-8.680;2023-11-21T13:33:02;6.95;;;1.63;;
81672;SDS011;71092;41.158;-8.680;2023-11-21T13:35:32;6.32;;;1.90;;
81672;SDS011;71092;41.158;-8.680;2023-11-21T13:38:09;6.03;;;1.98;;
81672;SDS011;71092;41.158;-8.680;2023-11-21T13:40:37;7.07;;;3.78;;
81672;SDS011;71092;41.158;-8.680;2023-11-21T13:43:15;5.95;;;3.15;;
81672;SDS011;71092;41.158;-8.680;2023-11-21T13:45:42;5.18;;;2.08;;
81672;SDS011;71092;41.158;-8.680;2023-11-21T13:48:09;6.22;;;1.92;;
81672;SDS011;71092;41.158;-8.680;2023-11-21T13:50:44;5.95;;;1.48;;
81672;SDS011;71092;41.158;-8.680;2023-11-21T13:53:20;5.72;;;1.92;;
81672;SDS011;71092;41.158;-8.680;2023-11-21T13:55:50;10.05;;;1.63;;
81672;SDS011;71092;41.158;-8.680;2023-11-21T13:58:19;5.72;;;1.52;;
81672;SDS011;71092;41.158;-8.680;2023-11-21T14:00:51;7.18;;;1.92;;
81672;SDS011;71092;41.158;-8.680;2023-11-21T14:03:23;4.03;;;1.50;;
81672;SDS011;71092;41.158;-8.680;2023-11-21T14:05:58;5.28;;;1.90;;
81672;SDS011;71092;41.158;-8.680;2023-11-21T14:08:26;6.05;;;1.70;;
81672;SDS011;71092;41.158;-8.680;2023-11-21T14:10:57;5.03;;;1.60;;
81672;SDS011;71092;41.158;-8.680;2023-11-21T14:13:28;5.60;;;1.85;;
81672;SDS011;71092;41.158;-8.680;2023-11-21T14:15:53;6.65;;;1.95;;
81672;SDS011;71092;41.158;-8.680;2023-11-21T14:18:27;6.35;;;1.70;;
81672;SDS011;71092;41.158;-8.680;2023-11-21T14:20:59;5.22;;;1.98;;
81672;SDS011;71092;41.158;-8.680;2023-11-21T14:23:25;3.88;;;1.63;;
81672;SDS011;71092;41.158;-8.680;2023-11-21T14:25:51;6.05;;;1.92;;
81672;SDS011;71092;41.158;-8.680;2023-11-21T14:28:17;7.40;;;1.80;;
81672;SDS011;71092;41.158;-8.680;2023-11-21T14:30:45;4.70;;;1.70;;
81672;SDS011;71092;41.158;-8.680;2023-11-21T14:33:13;5.75;;;1.77;;
81672;SDS011;71092;41.158;-8.680;2023-11-21T14:35:42;4.88;;;1.73;;
81672;SDS011;71092;41.158;-8.680;2023-11-21T14:38:08;5.97;;;1.85;;
81672;SDS011;71092;41.158;-8.680;2023-11-21T14:40:35;5.72;;;1.85;;
81672;SDS011;71092;41.158;-8.680;2023-11-21T14:43:01;6.10;;;1.90;;
81672;SDS011;71092;41.158;-8.680;2023-11-21T14:45:30;6.07;;;1.60;;
81672;SDS011;71092;41.158;-8.680;2023-11-21T14:47:57;5.25;;;1.80;;
81672;SDS011;71092;41.158;-8.680;2023-11-21T14:50:46;6.53;;;1.90;;
81672;SDS011;71092;41.158;-8.680;2023-11-21T14:53:34;5.18;;;1.63;;
81672;SDS011;71092;41.158;-8.680;2023-11-21T14:56:19;5.55;;;1.85;;